createdAt,value
2019-05-14T00:00:10.070Z,6.60
2019-05-14T00:02:36.083Z,6.59
2019-05-14T00:05:03.397Z,6.59
2019-05-14T00:07:29.511Z,6.62
2019-05-14T00:09:55.621Z,6.63
2019-05-14T00:12:22.324Z,6.61
2019-05-14T00:14:48.657Z,6.59
2019-05-14T00:17:14.675Z,6.60
2019-05-14T00:19:41.713Z,6.58
2019-05-14T00:22:08.095Z,6.59
2019-05-14T00:24:34.145Z,6.57
2019-05-14T00:27:02.101Z,6.58
2019-05-14T00:29:28.230Z,6.60
2019-05-14T00:31:54.326Z,6.59
2019-05-14T00:34:21.493Z,6.60
2019-05-14T00:36:47.640Z,6.57
2019-05-14T00:39:13.646Z,6.54
2019-05-14T00:41:41.782Z,6.51
2019-05-14T00:44:07.592Z,6.52
2019-05-14T00:46:33.722Z,6.52
2019-05-14T00:49:01.685Z,6.51
2019-05-14T00:51:27.828Z,6.47
2019-05-14T00:53:53.932Z,6.45
2019-05-14T00:56:21.647Z,6.44
2019-05-14T00:58:47.771Z,6.45
2019-05-14T01:01:13.887Z,6.47
2019-05-14T01:03:41.496Z,6.49
2019-05-14T01:06:07.713Z,6.49
2019-05-14T01:08:33.826Z,6.49
2019-05-14T01:11:01.629Z,6.49
2019-05-14T01:13:27.999Z,6.47
2019-05-14T01:15:54.102Z,6.46
2019-05-14T01:18:22.011Z,6.46
2019-05-14T01:20:48.115Z,6.45
2019-05-14T01:23:16.122Z,6.43
2019-05-14T01:25:42.300Z,6.44
2019-05-14T01:28:08.435Z,6.36
2019-05-14T01:30:34.540Z,6.33
2019-05-14T01:33:01.775Z,6.30
2019-05-14T01:35:28.078Z,6.29
2019-05-14T01:37:53.990Z,6.30
2019-05-14T01:40:21.858Z,6.30
2019-05-14T01:42:47.895Z,6.27
2019-05-14T01:45:23.955Z,6.28
2019-05-14T01:47:41.812Z,6.29
2019-05-14T01:50:08.011Z,6.28
2019-05-14T01:52:33.913Z,6.29
2019-05-14T01:55:02.014Z,6.28
2019-05-14T01:57:27.813Z,6.24
2019-05-14T01:59:53.748Z,6.19
2019-05-14T02:02:21.887Z,6.16
2019-05-14T02:04:47.683Z,6.14
2019-05-14T02:07:16.052Z,6.11
2019-05-14T02:09:42.182Z,6.05
2019-05-14T02:12:08.343Z,6.08
2019-05-14T02:14:34.265Z,6.06
2019-05-14T02:17:01.897Z,6.04
2019-05-14T02:19:28.299Z,6.05
2019-05-14T02:21:54.315Z,6.04
2019-05-14T02:24:21.790Z,6.05
2019-05-14T02:26:48.060Z,6.04
2019-05-14T02:29:13.995Z,6.03
2019-05-14T02:31:40.034Z,5.99
2019-05-14T02:34:05.935Z,5.97
2019-05-14T02:36:31.865Z,5.89
2019-05-14T02:39:00.324Z,5.87
2019-05-14T02:41:25.983Z,5.84
2019-05-14T02:43:52.079Z,5.83
2019-05-14T02:46:21.747Z,5.79
2019-05-14T02:48:48.927Z,5.73
2019-05-14T02:51:14.040Z,5.74
2019-05-14T02:53:40.043Z,5.73
2019-05-14T02:56:06.041Z,5.72
2019-05-14T02:58:32.186Z,5.68
2019-05-14T03:01:00.446Z,5.65
2019-05-14T03:03:26.309Z,5.61
2019-05-14T03:05:52.407Z,5.54
2019-05-14T03:08:19.920Z,5.41
2019-05-14T03:10:49.822Z,5.41
2019-05-14T03:13:14.332Z,5.40
2019-05-14T03:15:40.977Z,5.26
2019-05-14T03:18:09.262Z,5.18
2019-05-14T03:20:35.289Z,5.07
2019-05-14T03:23:07.998Z,5.02
2019-05-14T03:25:30.315Z,4.95
2019-05-14T03:27:59.615Z,4.87
2019-05-14T03:30:24.703Z,4.76
2019-05-14T03:32:52.892Z,4.70
2019-05-14T03:35:23.292Z,4.66
2019-05-14T03:37:49.687Z,4.59
2019-05-14T03:40:14.828Z,4.51
2019-05-14T03:42:40.994Z,4.48
2019-05-14T03:45:08.642Z,4.41
2019-05-14T03:47:34.913Z,4.32
2019-05-14T03:50:01.018Z,4.26
2019-05-14T03:52:29.204Z,4.22
2019-05-14T03:54:55.133Z,4.12
2019-05-14T03:57:21.246Z,4.07
2019-05-14T03:59:49.826Z,4.04
2019-05-14T04:02:15.390Z,3.99
2019-05-14T04:04:41.429Z,4.02
2019-05-14T04:07:09.814Z,4.01
2019-05-14T04:09:39.737Z,4.02
2019-05-14T04:12:09.755Z,4.06
2019-05-14T04:14:39.625Z,4.08
2019-05-14T04:17:11.047Z,4.14
2019-05-14T04:19:39.460Z,4.17
2019-05-14T04:22:05.195Z,4.17
2019-05-14T04:24:37.081Z,4.18
2019-05-14T04:27:11.632Z,4.21
2019-05-14T04:29:33.835Z,4.21
2019-05-14T04:32:01.743Z,4.16
2019-05-14T04:34:29.970Z,4.21
2019-05-14T04:36:59.064Z,4.25
2019-05-14T04:39:24.021Z,4.30
2019-05-14T04:41:50.159Z,4.23
2019-05-14T04:44:19.277Z,4.21
2019-05-14T04:46:44.464Z,4.27
2019-05-14T04:49:11.940Z,4.33
2019-05-14T04:51:39.642Z,4.31
2019-05-14T04:54:09.283Z,4.31
2019-05-14T04:56:34.118Z,4.35
2019-05-14T04:59:00.247Z,4.35
2019-05-14T05:01:29.251Z,4.28
2019-05-14T05:03:54.104Z,4.31
2019-05-14T05:06:20.113Z,4.35
2019-05-14T05:08:49.439Z,4.42
2019-05-14T05:11:16.997Z,4.45
2019-05-14T05:13:42.087Z,4.45
2019-05-14T05:16:09.883Z,4.44
2019-05-14T05:18:36.096Z,4.44
2019-05-14T05:21:02.200Z,4.41
2019-05-14T05:23:28.444Z,4.43
2019-05-14T05:25:54.604Z,4.42
2019-05-14T05:28:20.705Z,4.31
2019-05-14T05:30:48.990Z,4.38
2019-05-14T05:33:14.897Z,4.44
2019-05-14T05:35:42.418Z,4.51
2019-05-14T05:38:08.843Z,4.56
2019-05-14T05:40:34.851Z,4.56
2019-05-14T05:43:00.892Z,4.59
2019-05-14T05:45:29.018Z,4.65
2019-05-14T05:47:58.440Z,4.70
2019-05-14T05:50:22.854Z,4.72
2019-05-14T05:52:53.153Z,4.77
2019-05-14T05:55:19.172Z,4.79
2019-05-14T05:57:45.329Z,4.81
2019-05-14T06:00:12.161Z,4.85
2019-05-14T06:02:40.060Z,4.82
2019-05-14T06:05:08.131Z,4.85
2019-05-14T06:07:34.295Z,4.84
2019-05-14T06:10:00.404Z,4.86
2019-05-14T06:12:26.588Z,4.82
2019-05-14T06:14:52.602Z,4.80
2019-05-14T06:17:19.169Z,4.83
2019-05-14T06:19:45.529Z,4.88
2019-05-14T06:22:11.645Z,4.88
2019-05-14T06:24:38.985Z,4.84
2019-05-14T06:27:05.195Z,4.84
2019-05-14T06:29:31.138Z,4.87
2019-05-14T06:31:58.919Z,4.94
2019-05-14T06:34:24.982Z,4.98
2019-05-14T06:36:50.967Z,4.92
2019-05-14T06:39:18.282Z,4.95
2019-05-14T06:41:44.434Z,5.03
2019-05-14T06:44:10.333Z,5.02
2019-05-14T06:46:36.260Z,4.83
2019-05-14T06:49:02.359Z,4.81
2019-05-14T06:51:28.979Z,4.89
2019-05-14T06:53:55.777Z,4.97
2019-05-14T06:56:22.116Z,4.95
2019-05-14T06:58:49.064Z,4.99
2019-05-14T07:01:15.459Z,4.99
2019-05-14T07:03:41.471Z,5.06
2019-05-14T07:06:09.001Z,5.04
2019-05-14T07:08:35.711Z,4.97
2019-05-14T07:11:01.718Z,4.91
2019-05-14T07:13:29.275Z,4.86
2019-05-14T07:15:58.186Z,4.89
2019-05-14T07:18:23.576Z,4.92
2019-05-14T07:20:49.581Z,4.92
2019-05-14T07:23:19.202Z,4.93
2019-05-14T07:25:43.825Z,4.97
2019-05-14T07:28:10.502Z,4.91
2019-05-14T07:30:39.346Z,4.81
2019-05-14T07:33:04.523Z,4.76
2019-05-14T07:35:30.625Z,4.75
2019-05-14T07:37:58.993Z,4.75
2019-05-14T07:40:24.468Z,4.82
2019-05-14T07:42:50.473Z,4.83
2019-05-14T07:45:18.498Z,4.88
2019-05-14T07:47:44.488Z,4.87
2019-05-14T07:50:11.136Z,4.88
2019-05-14T07:52:45.301Z,4.91
2019-05-14T07:55:09.116Z,4.89
2019-05-14T07:57:35.220Z,4.91
2019-05-14T08:00:01.926Z,4.99
2019-05-14T08:02:28.973Z,5.08
2019-05-14T08:04:55.171Z,5.14
2019-05-14T08:07:21.311Z,5.19
2019-05-14T08:09:47.961Z,5.28
2019-05-14T08:12:16.348Z,5.40
2019-05-14T08:14:57.203Z,5.44
2019-05-14T08:17:10.750Z,5.52
2019-05-14T08:19:38.521Z,5.54
2019-05-14T08:22:04.845Z,5.62
2019-05-14T08:24:31.009Z,5.66
2019-05-14T08:26:57.917Z,5.74
2019-05-14T08:29:24.137Z,5.77
2019-05-14T08:31:50.277Z,5.79
2019-05-14T08:34:19.018Z,5.84
2019-05-14T08:36:44.402Z,5.90
2019-05-14T08:39:10.412Z,5.95
2019-05-14T08:41:38.452Z,6.00
2019-05-14T08:44:04.577Z,6.07
2019-05-14T08:46:31.407Z,6.13
2019-05-14T08:48:58.598Z,6.17
2019-05-14T08:51:25.047Z,6.17
2019-05-14T08:53:51.000Z,6.20
2019-05-14T08:56:19.207Z,6.20
2019-05-14T08:58:45.045Z,6.21
2019-05-14T09:01:11.181Z,6.24
2019-05-14T09:03:39.246Z,6.23
2019-05-14T09:06:05.242Z,6.20
2019-05-14T09:08:31.350Z,6.21
2019-05-14T09:10:59.043Z,6.25
2019-05-14T09:13:25.480Z,6.28
2019-05-14T09:15:51.486Z,6.29
2019-05-14T09:18:18.501Z,6.29
2019-05-14T09:20:44.805Z,6.30
2019-05-14T09:23:10.920Z,6.33
2019-05-14T09:25:45.667Z,6.34
2019-05-14T09:28:04.983Z,6.31
2019-05-14T09:30:31.099Z,6.32
2019-05-14T09:32:59.390Z,6.34
2019-05-14T09:35:25.231Z,6.37
2019-05-14T09:37:51.593Z,6.35
2019-05-14T09:40:19.837Z,6.32
2019-05-14T09:42:45.794Z,6.29
2019-05-14T09:45:12.035Z,6.26
2019-05-14T09:47:38.782Z,6.26
2019-05-14T09:50:16.362Z,6.27
2019-05-14T09:52:33.773Z,6.28
2019-05-14T09:54:59.777Z,6.30
2019-05-14T09:57:28.036Z,6.33
2019-05-14T09:59:53.719Z,6.36
2019-05-14T10:02:19.728Z,6.35
2019-05-14T10:04:48.671Z,6.34
2019-05-14T10:07:15.556Z,6.37
2019-05-14T10:09:41.645Z,6.36
2019-05-14T10:12:08.953Z,6.36
2019-05-14T10:14:35.199Z,6.37
2019-05-14T10:17:01.277Z,6.39
2019-05-14T10:19:29.508Z,6.42
2019-05-14T10:21:55.300Z,6.41
2019-05-14T10:24:21.333Z,6.41
2019-05-14T10:26:49.063Z,6.36
2019-05-14T10:29:15.366Z,6.39
2019-05-14T10:31:41.471Z,6.37
2019-05-14T10:34:08.383Z,6.37
2019-05-14T10:36:34.557Z,6.33
2019-05-14T10:39:00.704Z,6.31
2019-05-14T10:41:28.962Z,6.27
2019-05-14T10:43:54.852Z,6.29
2019-05-14T10:46:20.769Z,6.28
2019-05-14T10:48:46.820Z,6.27
2019-05-14T10:51:12.918Z,6.26
2019-05-14T10:53:39.029Z,6.24
2019-05-14T10:56:05.141Z,6.22
2019-05-14T10:58:31.158Z,6.23
2019-05-14T11:00:58.987Z,6.22
2019-05-14T11:03:25.252Z,6.20
2019-05-14T11:05:51.365Z,6.18
2019-05-14T11:08:18.906Z,6.22
2019-05-14T11:10:45.889Z,6.24
2019-05-14T11:13:12.003Z,6.27
2019-05-14T11:15:39.549Z,6.32
2019-05-14T11:18:08.469Z,6.37
2019-05-14T11:20:33.763Z,6.37
2019-05-14T11:22:59.874Z,6.29
2019-05-14T11:25:25.989Z,6.19
2019-05-14T11:27:51.993Z,6.08
2019-05-14T11:30:19.497Z,6.11
2019-05-14T11:32:45.764Z,6.11
2019-05-14T11:35:13.173Z,6.20
2019-05-14T11:37:41.403Z,6.25
2019-05-14T11:40:08.762Z,6.33
2019-05-14T11:42:34.965Z,6.41
2019-05-14T11:45:01.102Z,6.46
2019-05-14T11:47:27.209Z,6.53
2019-05-14T11:49:53.217Z,6.59
2019-05-14T11:52:19.319Z,6.63
2019-05-14T11:54:46.001Z,6.69
2019-05-14T11:57:12.073Z,6.75
2019-05-14T11:59:39.124Z,6.78
2019-05-14T12:02:05.458Z,6.78
2019-05-14T12:04:31.558Z,6.76
2019-05-14T12:06:59.129Z,6.81
2019-05-14T12:09:28.212Z,6.87
2019-05-14T12:11:53.491Z,6.86
2019-05-14T12:14:19.686Z,6.89
2019-05-14T12:16:49.207Z,6.96
2019-05-14T12:19:13.761Z,7.04
2019-05-14T12:21:40.001Z,7.07
2019-05-14T12:24:09.117Z,7.10
2019-05-14T12:26:34.202Z,7.10
2019-05-14T12:29:00.311Z,7.10
2019-05-14T12:31:28.806Z,7.12
2019-05-14T12:33:54.476Z,7.10
2019-05-14T12:36:20.604Z,7.07
2019-05-14T12:38:46.621Z,7.01
2019-05-14T12:41:12.783Z,7.01
2019-05-14T12:43:39.783Z,7.01
2019-05-14T12:46:10.074Z,7.06
2019-05-14T12:48:34.834Z,7.05
2019-05-14T12:51:00.944Z,6.99
2019-05-14T12:53:28.762Z,7.00
2019-05-14T12:55:55.113Z,7.02
2019-05-14T12:58:21.167Z,7.01
2019-05-14T13:00:48.705Z,7.04
2019-05-14T13:03:15.048Z,7.02
2019-05-14T13:05:41.153Z,6.97
2019-05-14T13:08:11.209Z,6.95
2019-05-14T13:10:35.288Z,6.96
2019-05-14T13:13:01.293Z,6.96
2019-05-14T13:15:28.731Z,6.95
2019-05-14T13:17:54.924Z,6.98
2019-05-14T13:20:22.040Z,6.92
2019-05-14T13:22:50.186Z,6.85
2019-05-14T13:25:19.185Z,6.75
2019-05-14T13:27:44.300Z,6.69
2019-05-14T13:30:14.140Z,6.71
2019-05-14T13:32:40.372Z,6.71
2019-05-14T13:35:10.450Z,6.72
2019-05-14T13:37:34.794Z,6.76
2019-05-14T13:40:00.897Z,6.77
2019-05-14T13:42:29.386Z,6.79
2019-05-14T13:44:54.909Z,6.78
2019-05-14T13:47:21.030Z,6.78
2019-05-14T13:49:48.729Z,6.79
2019-05-14T13:52:14.945Z,6.71
2019-05-14T13:54:40.953Z,6.72
2019-05-14T13:57:09.090Z,6.67
2019-05-14T13:59:35.105Z,6.74
2019-05-14T14:02:01.214Z,6.81
2019-05-14T14:04:27.312Z,6.83
2019-05-14T14:06:54.043Z,6.90
2019-05-14T14:09:20.744Z,6.93
2019-05-14T14:11:48.326Z,6.95
2019-05-14T14:14:14.492Z,6.96
2019-05-14T14:16:40.616Z,6.97
2019-05-14T14:19:08.750Z,6.95
2019-05-14T14:21:34.805Z,6.99
2019-05-14T14:24:01.016Z,6.99
2019-05-14T14:26:29.164Z,7.01
2019-05-14T14:28:55.153Z,7.02
2019-05-14T14:31:21.268Z,7.04
2019-05-14T14:33:48.682Z,7.04
2019-05-14T14:36:15.040Z,7.06
2019-05-14T14:38:40.993Z,7.09
2019-05-14T14:41:09.768Z,7.12
2019-05-14T14:43:35.080Z,7.16
2019-05-14T14:46:01.156Z,7.21
2019-05-14T14:48:30.222Z,7.20
2019-05-14T14:50:55.233Z,7.24
2019-05-14T14:53:40.794Z,7.24
2019-05-14T14:55:49.985Z,7.20
2019-05-14T14:58:16.226Z,7.16
2019-05-14T15:00:42.332Z,7.11
2019-05-14T15:03:10.111Z,7.02
2019-05-14T15:05:39.011Z,7.00
2019-05-14T15:08:04.206Z,7.03
2019-05-14T15:10:30.407Z,7.09
2019-05-14T15:12:58.752Z,7.08
2019-05-14T15:15:24.416Z,7.12
2019-05-14T15:17:50.447Z,7.14
2019-05-14T15:20:19.272Z,7.16
2019-05-14T15:22:44.675Z,7.18
2019-05-14T15:25:10.730Z,7.18
2019-05-14T15:27:38.549Z,7.19
2019-05-14T15:30:06.689Z,7.21
2019-05-14T15:32:32.712Z,7.20
2019-05-14T15:34:59.597Z,7.21
2019-05-14T15:37:28.605Z,7.19
2019-05-14T15:39:53.640Z,7.19
2019-05-14T15:42:19.789Z,7.20
2019-05-14T15:44:52.117Z,7.20
2019-05-14T15:47:13.734Z,7.20
2019-05-14T15:49:39.771Z,7.14
2019-05-14T15:52:08.276Z,7.15
2019-05-14T15:54:42.244Z,7.08
2019-05-14T15:57:01.810Z,7.03
2019-05-14T15:59:28.442Z,7.02
2019-05-14T16:01:54.742Z,7.02
2019-05-14T16:04:21.012Z,7.03
2019-05-14T16:06:48.880Z,7.05
2019-05-14T16:09:14.963Z,7.01
2019-05-14T16:11:40.971Z,6.97
2019-05-14T16:14:07.970Z,7.02
2019-05-14T16:16:35.603Z,7.01
2019-05-14T16:19:01.640Z,7.04
2019-05-14T16:21:28.900Z,7.05
2019-05-14T16:23:55.182Z,7.03
2019-05-14T16:26:21.351Z,7.07
2019-05-14T16:28:47.476Z,7.07
2019-05-14T16:31:13.483Z,7.08
2019-05-14T16:33:40.663Z,7.11
2019-05-14T16:36:08.829Z,7.13
2019-05-14T16:38:34.938Z,7.14
2019-05-14T16:41:00.849Z,7.14
2019-05-14T16:43:32.052Z,7.14
2019-05-14T16:45:55.421Z,7.14
2019-05-14T16:48:21.345Z,7.13
2019-05-14T16:50:48.937Z,7.14
2019-05-14T16:53:15.296Z,7.14
2019-05-14T16:55:41.405Z,7.15
2019-05-14T16:58:08.967Z,7.18
2019-05-14T17:00:35.246Z,7.18
2019-05-14T17:03:01.259Z,7.14
2019-05-14T17:05:29.884Z,7.17
2019-05-14T17:07:55.167Z,7.20
2019-05-14T17:10:21.410Z,7.20
2019-05-14T17:12:53.488Z,7.21
2019-05-14T17:15:18.036Z,7.21
2019-05-14T17:17:43.662Z,7.22
2019-05-14T17:20:09.871Z,7.22
2019-05-14T17:22:35.777Z,7.22
2019-05-14T17:25:01.927Z,7.23
2019-05-14T17:27:28.630Z,7.24
2019-05-14T17:29:54.972Z,7.24
2019-05-14T17:32:21.079Z,7.23
2019-05-14T17:34:49.069Z,7.23
2019-05-14T17:37:15.093Z,7.23
2019-05-14T17:39:41.230Z,7.25
2019-05-14T17:42:11.410Z,7.22
2019-05-14T17:44:35.318Z,7.23
2019-05-14T17:47:01.325Z,7.24
2019-05-14T17:49:28.374Z,7.27
2019-05-14T17:51:54.578Z,7.27
2019-05-14T17:54:20.687Z,7.30
2019-05-14T17:56:48.665Z,7.32
2019-05-14T17:59:19.749Z,7.31
2019-05-14T18:01:45.964Z,7.33
2019-05-14T18:04:11.981Z,7.36
2019-05-14T18:06:38.099Z,7.34
2019-05-14T18:09:04.443Z,7.35
2019-05-14T18:11:30.571Z,7.38
2019-05-14T18:13:59.814Z,7.37
2019-05-14T18:16:25.687Z,7.40
2019-05-14T18:18:51.843Z,7.33
2019-05-14T18:21:17.964Z,7.36
2019-05-14T18:23:43.962Z,7.40
2019-05-14T18:26:10.135Z,7.43
2019-05-14T18:28:38.285Z,7.43
2019-05-14T18:31:04.455Z,7.43
2019-05-14T18:33:31.398Z,7.43
2019-05-14T18:35:58.939Z,7.44
2019-05-14T18:38:25.523Z,7.47
2019-05-14T18:40:51.758Z,7.47
2019-05-14T18:43:18.757Z,7.49
2019-05-14T18:45:45.103Z,7.50
2019-05-14T18:48:11.240Z,7.51
2019-05-14T18:50:37.375Z,7.51
2019-05-14T18:53:03.699Z,7.49
2019-05-14T18:55:29.737Z,7.48
2019-05-14T18:57:56.048Z,7.48
2019-05-14T19:00:22.332Z,7.51
2019-05-14T19:02:48.434Z,7.50
2019-05-14T19:05:14.942Z,7.50
2019-05-14T19:07:41.518Z,7.52
2019-05-14T19:10:09.321Z,7.54
2019-05-14T19:12:35.592Z,7.54
2019-05-14T19:15:01.692Z,7.53
2019-05-14T19:17:28.339Z,7.56
2019-05-14T19:19:54.411Z,7.56
2019-05-14T19:22:20.558Z,7.57
2019-05-14T19:24:49.065Z,7.58
2019-05-14T19:27:14.675Z,7.60
2019-05-14T19:29:40.687Z,7.63
2019-05-14T19:32:08.217Z,7.63
2019-05-14T19:34:34.423Z,7.65
2019-05-14T19:37:00.435Z,7.67
2019-05-14T19:39:28.202Z,7.66
2019-05-14T19:41:54.476Z,7.64
2019-05-14T19:44:20.473Z,7.66
2019-05-14T19:46:49.067Z,7.66
2019-05-14T19:49:14.505Z,7.68
2019-05-14T19:51:40.411Z,7.69
2019-05-14T19:54:08.165Z,7.69
2019-05-14T19:56:51.331Z,7.68
2019-05-14T19:59:02.265Z,7.69
2019-05-14T20:01:28.828Z,7.70
2019-05-14T20:03:55.105Z,7.72
2019-05-14T20:06:21.122Z,7.71
2019-05-14T20:08:48.225Z,7.71
2019-05-14T20:11:14.666Z,7.74
2019-05-14T20:13:40.770Z,7.73
2019-05-14T20:16:08.673Z,7.73
2019-05-14T20:18:34.827Z,7.73
2019-05-14T20:21:00.936Z,7.74
2019-05-14T20:23:28.952Z,7.77
2019-05-14T20:25:54.950Z,7.73
2019-05-14T20:28:20.955Z,7.75
2019-05-14T20:30:49.203Z,7.76
2019-05-14T20:33:15.126Z,7.76
2019-05-14T20:35:41.827Z,7.78
2019-05-14T20:38:09.033Z,7.78
2019-05-14T20:40:35.181Z,7.79
2019-05-14T20:43:01.303Z,7.81
2019-05-14T20:45:28.888Z,7.80
2019-05-14T20:47:55.834Z,7.80
2019-05-14T20:50:21.937Z,7.78
2019-05-14T20:52:48.437Z,7.77
2019-05-14T20:55:14.642Z,7.77
2019-05-14T20:57:40.746Z,7.78
2019-05-14T21:00:07.957Z,7.79
2019-05-14T21:02:33.969Z,7.81
2019-05-14T21:05:04.536Z,7.81
2019-05-14T21:07:28.831Z,7.83
2019-05-14T21:09:55.205Z,7.85
2019-05-14T21:12:21.239Z,7.85
2019-05-14T21:14:49.150Z,7.87
2019-05-14T21:17:15.417Z,7.88
2019-05-14T21:19:41.517Z,7.86
2019-05-14T21:22:08.409Z,7.86
2019-05-14T21:24:34.696Z,7.87
2019-05-14T21:27:00.603Z,7.83
2019-05-14T21:29:30.309Z,7.83
2019-05-14T21:31:54.583Z,7.85
2019-05-14T21:34:20.615Z,7.84
2019-05-14T21:36:46.715Z,7.84
2019-05-14T21:39:12.743Z,7.86
2019-05-14T21:41:38.882Z,7.85
2019-05-14T21:44:04.971Z,7.87
2019-05-14T21:46:31.754Z,7.88
2019-05-14T21:48:58.504Z,7.88
2019-05-14T21:51:24.817Z,7.89
2019-05-14T21:53:50.916Z,7.87
2019-05-14T21:56:21.248Z,7.84
2019-05-14T21:58:44.943Z,7.85
2019-05-14T22:01:11.448Z,7.87
2019-05-14T22:03:40.079Z,7.88
2019-05-14T22:06:05.695Z,7.90
2019-05-14T22:08:31.809Z,7.89
2019-05-14T22:10:58.558Z,7.90
2019-05-14T22:13:24.627Z,7.90
2019-05-14T22:15:50.743Z,7.93
2019-05-14T22:18:20.103Z,7.93
2019-05-14T22:20:44.751Z,7.92
2019-05-14T22:23:10.758Z,7.93
2019-05-14T22:25:39.143Z,7.92
2019-05-14T22:28:12.367Z,7.90
2019-05-14T22:30:32.919Z,7.88
2019-05-14T22:33:00.693Z,7.89
2019-05-14T22:35:28.330Z,7.88
2019-05-14T22:37:54.767Z,7.89
2019-05-14T22:40:20.776Z,7.89
2019-05-14T22:42:46.802Z,7.91
2019-05-14T22:45:13.113Z,7.92
2019-05-14T22:47:40.426Z,7.92
2019-05-14T22:50:08.971Z,7.89
2019-05-14T22:52:35.309Z,7.91
2019-05-14T22:55:01.424Z,7.92
2019-05-14T22:57:30.847Z,7.94
2019-05-14T22:59:55.277Z,7.93
2019-05-14T23:02:21.195Z,7.93
2019-05-14T23:04:49.266Z,7.92
2019-05-14T23:07:15.320Z,7.92
2019-05-14T23:09:41.327Z,7.92
2019-05-14T23:12:12.110Z,7.93
2019-05-14T23:14:35.391Z,7.94
2019-05-14T23:17:01.520Z,7.95
2019-05-14T23:19:27.551Z,7.98
2019-05-14T23:21:53.675Z,7.96
2019-05-14T23:24:20.372Z,7.98
2019-05-14T23:26:49.014Z,8.00
2019-05-14T23:29:14.191Z,7.98
2019-05-14T23:31:40.233Z,7.97
2019-05-14T23:34:06.336Z,7.99
2019-05-14T23:36:32.469Z,8.00
2019-05-14T23:38:59.176Z,7.97
2019-05-14T23:41:25.377Z,7.92
2019-05-14T23:43:51.412Z,7.94
2019-05-14T23:46:18.356Z,7.94
2019-05-14T23:48:44.527Z,7.94
2019-05-14T23:51:10.531Z,7.89
2019-05-14T23:53:38.848Z,7.88
2019-05-14T23:56:04.681Z,7.89
2019-05-14T23:58:30.720Z,7.89
